Accueil
METAR-TAF:

METAR-TAF

Aéroports :

Cabo San Lucas, Mexique

latitude: 22-56-51N, longitude: 109-56-13W, altitude: 210 m

Observation

Vent 11 kt de sud/sud-est
Température 23°C
Humidité 50%
Pression 1015 hPa
Visibilité: 14.5 km
Nuages épars à une hauteur de 25000 ft

METAR: MMSL 22247Z 16011KT 9SM SCT250 23/12 A2996 RMK 8/008

Heure: 14:48 (21:48 UTC)

Prévision

Le bulletin a été fait il y a 5 heures et 3 minutes, à 16:45 UTC
Prévision valable du 22 à 18 UTC au 23 à 18 UTC
Vent 8 kt de sud-est
Visibilité: 10 km
Nuages fragmentés à une hauteur de 28000 ft
A partir de 23 à 0400 UTC
Vent 5 kt de nord/nord-ouest
Visibilité: 10 km
Nuages épars à une hauteur de 30000 ft
A partir de 23 à 1700 UTC
Vent 8 kt de sud-est
Visibilité: 10 km
Ciel clair

TAF: MMSL 221645Z 2218/2318 14008KT P6SM BKN280 FM230400 33005KT P6SM SCT300 FM231700 14008KT P6SM SKC

Observations et prévisions météorologiques de plus de 4000 aéroports (messages METAR et TAF).

Les stations disponibles sont représentées par des disques jaunes et rouges sur la carte.

Passer la souris dessus pour voir le nom de la station.

Cliquer dessus pour voir les observations et prévisions météorologiques.

Pour changer de carte: cliquez sur les boutons verts avec une croix noire pour zoomer, sur le bouton vert avec un tiret pour effectuer un zoom arrière, ou sur les flèches vertes pour les cartes adjacentes.


METAR-TAF: